createdAt,value
2019-01-08T00:00:55.820Z,35.08
2019-01-08T00:02:05.009Z,34.98
2019-01-08T00:03:14.701Z,34.98
2019-01-08T00:04:23.909Z,35.08
2019-01-08T00:05:33.373Z,34.98
2019-01-08T00:06:42.550Z,34.98
2019-01-08T00:07:51.472Z,34.98
2019-01-08T00:09:01.166Z,34.98
2019-01-08T00:10:10.601Z,34.98
2019-01-08T00:11:19.582Z,34.98
2019-01-08T00:12:28.776Z,34.98
2019-01-08T00:13:38.346Z,34.98
2019-01-08T00:14:47.278Z,34.98
2019-01-08T00:15:56.730Z,35.17
2019-01-08T00:17:06.441Z,34.98
2019-01-08T00:18:15.614Z,34.88
2019-01-08T00:19:24.549Z,35.17
2019-01-08T00:20:34.272Z,35.17
2019-01-08T00:21:43.458Z,35.08
2019-01-08T00:22:53.386Z,35.17
2019-01-08T00:24:02.083Z,35.17
2019-01-08T00:25:11.307Z,35.17
2019-01-08T00:26:20.572Z,35.08
2019-01-08T00:27:30.292Z,35.17
2019-01-08T00:28:45.681Z,34.98
2019-01-08T00:29:54.623Z,35.17
2019-01-08T00:31:03.648Z,35.17
2019-01-08T00:32:13.317Z,35.08
2019-01-08T00:33:22.519Z,35.08
2019-01-08T00:34:31.488Z,35.17
2019-01-08T00:35:40.965Z,35.17
2019-01-08T00:36:50.410Z,35.17
2019-01-08T00:37:59.844Z,35.17
2019-01-08T00:39:09.330Z,35.08
2019-01-08T00:40:18.547Z,35.17
2019-01-08T00:41:28.228Z,35.17
2019-01-08T00:42:38.170Z,35.08
2019-01-08T00:43:47.603Z,35.17
2019-01-08T00:44:57.028Z,34.98
2019-01-08T00:46:06.812Z,35.08
2019-01-08T00:47:16.238Z,34.98
2019-01-08T00:48:25.191Z,34.98
2019-01-08T00:49:34.390Z,35.17
2019-01-08T00:50:43.574Z,35.08
2019-01-08T00:51:53.265Z,34.98
2019-01-08T00:53:02.942Z,34.98
2019-01-08T00:54:12.412Z,34.98
2019-01-08T00:55:21.145Z,35.08
2019-01-08T00:56:30.341Z,34.98
2019-01-08T00:57:39.538Z,35.08
2019-01-08T00:58:54.080Z,35.08
2019-01-08T01:00:03.262Z,35.08
2019-01-08T01:01:12.471Z,35.16
2019-01-08T01:02:21.646Z,35.17
2019-01-08T01:03:30.827Z,35.27
2019-01-08T01:04:40.249Z,35.16
2019-01-08T01:05:49.698Z,35.27
2019-01-08T01:06:59.130Z,35.16
2019-01-08T01:08:08.602Z,35.16
2019-01-08T01:09:17.795Z,35.27
2019-01-08T01:10:27.244Z,35.27
2019-01-08T01:11:36.671Z,35.17
2019-01-08T01:12:45.953Z,35.17
2019-01-08T01:13:55.392Z,35.16
2019-01-08T01:15:05.160Z,35.16
2019-01-08T01:16:14.924Z,35.16
2019-01-08T01:17:24.404Z,35.16
2019-01-08T01:18:33.337Z,35.17
2019-01-08T01:19:43.273Z,35.25
2019-01-08T01:20:53.603Z,35.25
2019-01-08T01:22:03.203Z,35.16
2019-01-08T01:23:12.911Z,35.17
2019-01-08T01:24:22.342Z,35.17
2019-01-08T01:25:31.538Z,35.06
2019-01-08T01:26:41.240Z,35.06
2019-01-08T01:27:50.175Z,35.16
2019-01-08T01:29:02.805Z,35.08
2019-01-08T01:30:11.772Z,35.35
2019-01-08T01:31:21.216Z,35.25
2019-01-08T01:32:30.135Z,35.35
2019-01-08T01:33:39.821Z,35.35
2019-01-08T01:34:49.276Z,35.35
2019-01-08T01:35:58.462Z,35.25
2019-01-08T01:37:08.408Z,35.25
2019-01-08T01:38:17.847Z,35.44
2019-01-08T01:39:26.806Z,35.44
2019-01-08T01:40:36.024Z,35.35
2019-01-08T01:41:45.791Z,35.25
2019-01-08T01:42:55.752Z,35.35
2019-01-08T01:44:05.430Z,35.25
2019-01-08T01:45:14.621Z,35.44
2019-01-08T01:46:24.062Z,35.54
2019-01-08T01:47:33.498Z,35.35
2019-01-08T01:48:42.936Z,35.35
2019-01-08T01:49:51.851Z,35.35
2019-01-08T01:51:01.538Z,35.44
2019-01-08T01:52:10.711Z,35.44
2019-01-08T01:53:19.661Z,35.25
2019-01-08T01:54:29.336Z,35.44
2019-01-08T01:55:38.515Z,35.44
2019-01-08T01:56:48.197Z,35.54
2019-01-08T01:57:57.378Z,35.35
2019-01-08T01:59:11.096Z,35.35
2019-01-08T02:00:20.280Z,35.54
2019-01-08T02:01:29.460Z,35.44
2019-01-08T02:02:39.379Z,35.35
2019-01-08T02:03:49.078Z,35.44
2019-01-08T02:04:58.752Z,35.44
2019-01-08T02:06:07.952Z,35.44
2019-01-08T02:07:17.486Z,35.54
2019-01-08T02:08:26.666Z,35.44
2019-01-08T02:09:35.595Z,35.44
2019-01-08T02:10:45.293Z,35.35
2019-01-08T02:11:54.495Z,35.44
2019-01-08T02:13:04.453Z,35.44
2019-01-08T02:14:13.660Z,35.54
2019-01-08T02:15:23.343Z,35.44
2019-01-08T02:16:32.515Z,35.44
2019-01-08T02:17:41.943Z,35.35
2019-01-08T02:18:51.235Z,35.35
2019-01-08T02:20:00.922Z,35.35
2019-01-08T02:21:10.605Z,35.44
2019-01-08T02:22:20.294Z,35.35
2019-01-08T02:23:29.724Z,35.54
2019-01-08T02:24:38.900Z,35.35
2019-01-08T02:25:48.364Z,35.44
2019-01-08T02:26:57.815Z,35.35
2019-01-08T02:28:07.009Z,35.35
2019-01-08T02:29:19.091Z,35.44
2019-01-08T02:30:28.029Z,35.25
2019-01-08T02:31:37.255Z,35.35
2019-01-08T02:32:46.721Z,35.44
2019-01-08T02:33:55.913Z,35.44
2019-01-08T02:35:05.167Z,35.44
2019-01-08T02:36:14.867Z,35.54
2019-01-08T02:37:24.079Z,35.44
2019-01-08T02:38:33.817Z,35.44
2019-01-08T02:39:43.552Z,35.54
2019-01-08T02:40:52.867Z,35.54
2019-01-08T02:42:02.995Z,35.44
2019-01-08T02:43:12.903Z,35.44
2019-01-08T02:44:22.461Z,35.54
2019-01-08T02:45:32.274Z,35.54
2019-01-08T02:46:42.336Z,35.44
2019-01-08T02:47:52.163Z,35.42
2019-01-08T02:49:01.438Z,35.42
2019-01-08T02:50:10.652Z,35.35
2019-01-08T02:51:19.842Z,35.44
2019-01-08T02:52:29.777Z,35.44
2019-01-08T02:53:39.010Z,35.44
2019-01-08T02:54:48.051Z,35.54
2019-01-08T02:55:57.748Z,35.44
2019-01-08T02:57:07.461Z,35.35
2019-01-08T02:58:17.158Z,35.35
2019-01-08T02:59:27.812Z,35.44
2019-01-08T03:00:37.262Z,35.42
2019-01-08T03:01:45.954Z,35.44
2019-01-08T03:02:55.373Z,35.33
2019-01-08T03:04:04.808Z,35.42
2019-01-08T03:05:14.324Z,35.24
2019-01-08T03:06:23.515Z,35.24
2019-01-08T03:07:32.703Z,35.52
2019-01-08T03:08:42.142Z,35.24
2019-01-08T03:09:51.355Z,35.42
2019-01-08T03:11:00.297Z,35.33
2019-01-08T03:12:10.011Z,35.24
2019-01-08T03:13:19.714Z,35.42
2019-01-08T03:14:28.663Z,35.24
2019-01-08T03:15:37.667Z,35.42
2019-01-08T03:16:46.620Z,35.42
2019-01-08T03:17:56.092Z,35.52
2019-01-08T03:19:05.035Z,35.42
2019-01-08T03:20:14.241Z,35.42
2019-01-08T03:21:23.947Z,35.42
2019-01-08T03:22:32.883Z,35.42
2019-01-08T03:23:42.060Z,35.33
2019-01-08T03:24:51.272Z,35.33
2019-01-08T03:26:00.714Z,35.42
2019-01-08T03:27:09.911Z,35.33
2019-01-08T03:28:19.114Z,35.33
2019-01-08T03:29:35.752Z,35.42
2019-01-08T03:30:45.469Z,35.33
2019-01-08T03:31:55.228Z,35.42
2019-01-08T03:33:05.210Z,35.33
2019-01-08T03:34:14.396Z,35.42
2019-01-08T03:35:23.834Z,35.42
2019-01-08T03:36:32.538Z,35.33
2019-01-08T03:37:42.010Z,35.52
2019-01-08T03:38:51.530Z,35.33
2019-01-08T03:40:00.465Z,35.42
2019-01-08T03:41:09.643Z,35.24
2019-01-08T03:42:18.585Z,35.42
2019-01-08T03:43:28.041Z,35.52
2019-01-08T03:44:37.098Z,35.33
2019-01-08T03:45:46.570Z,35.42
2019-01-08T03:46:56.294Z,35.33
2019-01-08T03:48:05.740Z,35.52
2019-01-08T03:49:15.208Z,35.42
2019-01-08T03:50:24.134Z,35.52
2019-01-08T03:51:33.351Z,35.42
2019-01-08T03:52:43.034Z,35.33
2019-01-08T03:53:52.510Z,35.42
2019-01-08T03:55:01.940Z,35.24
2019-01-08T03:56:11.138Z,35.33
2019-01-08T03:57:20.595Z,35.33
2019-01-08T03:58:30.571Z,35.42
2019-01-08T03:59:44.354Z,35.24
2019-01-08T04:00:53.799Z,35.24
2019-01-08T04:02:03.282Z,35.42
2019-01-08T04:03:12.245Z,35.33
2019-01-08T04:04:21.239Z,35.33
2019-01-08T04:05:30.168Z,35.24
2019-01-08T04:06:39.605Z,35.52
2019-01-08T04:07:49.070Z,35.24
2019-01-08T04:08:58.267Z,35.42
2019-01-08T04:10:07.460Z,35.24
2019-01-08T04:11:16.671Z,35.52
2019-01-08T04:12:26.125Z,35.24
2019-01-08T04:13:35.590Z,35.52
2019-01-08T04:14:45.531Z,35.33
2019-01-08T04:15:55.210Z,35.42
2019-01-08T04:17:05.587Z,35.33
2019-01-08T04:18:14.789Z,35.42
2019-01-08T04:19:23.509Z,35.24
2019-01-08T04:20:33.230Z,35.52
2019-01-08T04:21:42.426Z,35.33
2019-01-08T04:22:52.131Z,35.33
2019-01-08T04:24:01.940Z,35.33
2019-01-08T04:25:11.622Z,35.24
2019-01-08T04:26:20.793Z,35.33
2019-01-08T04:27:30.221Z,35.33
2019-01-08T04:28:39.701Z,35.42
2019-01-08T04:29:53.214Z,35.24
2019-01-08T04:31:02.740Z,35.42
2019-01-08T04:32:11.949Z,35.33
2019-01-08T04:33:20.892Z,35.42
2019-01-08T04:34:30.338Z,35.33
2019-01-08T04:35:39.519Z,35.42
2019-01-08T04:36:48.947Z,35.24
2019-01-08T04:37:58.212Z,35.33
2019-01-08T04:39:07.906Z,35.33
2019-01-08T04:40:17.343Z,35.33
2019-01-08T04:41:26.843Z,35.33
2019-01-08T04:42:36.326Z,35.33
2019-01-08T04:43:45.569Z,35.33
2019-01-08T04:44:55.237Z,35.42
2019-01-08T04:46:04.674Z,35.42
2019-01-08T04:47:14.399Z,35.42
2019-01-08T04:48:24.073Z,35.52
2019-01-08T04:49:33.524Z,35.42
2019-01-08T04:50:42.238Z,35.42
2019-01-08T04:51:51.546Z,35.33
2019-01-08T04:53:01.239Z,35.42
2019-01-08T04:54:10.937Z,35.33
2019-01-08T04:55:20.651Z,35.52
2019-01-08T04:56:30.081Z,35.42
2019-01-08T04:57:39.758Z,35.33
2019-01-08T04:58:49.216Z,35.42
2019-01-08T05:00:01.300Z,35.42
2019-01-08T05:01:10.737Z,35.42
2019-01-08T05:02:19.962Z,35.42
2019-01-08T05:03:29.648Z,35.42
2019-01-08T05:04:39.123Z,35.42
2019-01-08T05:05:48.300Z,35.33
2019-01-08T05:06:58.632Z,35.42
2019-01-08T05:08:07.903Z,35.42
2019-01-08T05:09:17.633Z,35.31
2019-01-08T05:10:26.894Z,35.42
2019-01-08T05:11:36.077Z,35.41
2019-01-08T05:12:45.260Z,35.42
2019-01-08T05:13:55.057Z,35.42
2019-01-08T05:15:04.019Z,35.31
2019-01-08T05:16:13.300Z,35.42
2019-01-08T05:17:22.483Z,35.24
2019-01-08T05:18:31.919Z,35.24
2019-01-08T05:19:41.368Z,35.41
2019-01-08T05:20:50.345Z,35.41
2019-01-08T05:21:59.562Z,35.5
2019-01-08T05:23:09.034Z,35.42
2019-01-08T05:24:18.236Z,35.5
2019-01-08T05:25:27.964Z,35.52
2019-01-08T05:26:37.142Z,35.41
2019-01-08T05:27:46.353Z,35.31
2019-01-08T05:28:55.790Z,35.41
2019-01-08T05:30:10.519Z,35.31
2019-01-08T05:31:19.949Z,35.33
2019-01-08T05:32:29.633Z,35.5
2019-01-08T05:33:38.851Z,35.31
2019-01-08T05:34:47.842Z,35.41
2019-01-08T05:35:57.265Z,35.31
2019-01-08T05:37:06.463Z,35.33
2019-01-08T05:38:15.901Z,35.31
2019-01-08T05:39:24.615Z,35.22
2019-01-08T05:40:34.076Z,35.42
2019-01-08T05:41:42.790Z,35.42
2019-01-08T05:42:52.947Z,35.22
2019-01-08T05:44:02.151Z,35.22
2019-01-08T05:45:11.344Z,35.22
2019-01-08T05:46:20.301Z,35.5
2019-01-08T05:47:29.743Z,35.12
2019-01-08T05:48:38.417Z,35.41
2019-01-08T05:49:47.412Z,35.41
2019-01-08T05:50:56.869Z,35.31
2019-01-08T05:52:06.185Z,35.31
2019-01-08T05:53:15.377Z,35.31
2019-01-08T05:54:24.802Z,35.41
2019-01-08T05:55:33.787Z,35.22
2019-01-08T05:56:43.297Z,35.22
2019-01-08T05:57:52.577Z,35.5
2019-01-08T05:59:02.276Z,35.22
2019-01-08T06:00:18.977Z,35.22
2019-01-08T06:01:28.172Z,35.41
2019-01-08T06:02:38.864Z,35.41
2019-01-08T06:03:48.533Z,35.41
2019-01-08T06:04:57.965Z,35.41
2019-01-08T06:06:06.824Z,35.12
2019-01-08T06:07:16.350Z,35.22
2019-01-08T06:08:25.779Z,35.31
2019-01-08T06:09:35.240Z,35.31
2019-01-08T06:10:44.456Z,35.12
2019-01-08T06:11:53.672Z,34.92
2019-01-08T06:13:02.902Z,35.22
2019-01-08T06:14:12.086Z,35.22
2019-01-08T06:15:21.516Z,35.02
2019-01-08T06:16:30.726Z,35.12
2019-01-08T06:17:40.679Z,35.12
2019-01-08T06:18:50.105Z,35.02
2019-01-08T06:19:59.339Z,35.12
2019-01-08T06:21:08.887Z,34.92
2019-01-08T06:22:18.336Z,34.84
2019-01-08T06:23:27.772Z,35.02
2019-01-08T06:24:37.459Z,34.92
2019-01-08T06:25:46.621Z,34.92
2019-01-08T06:26:56.353Z,35.04
2019-01-08T06:28:05.805Z,34.94
2019-01-08T06:29:14.994Z,35.04
2019-01-08T06:30:27.346Z,34.94
2019-01-08T06:31:36.800Z,35.04
2019-01-08T06:32:46.235Z,34.94
2019-01-08T06:33:55.700Z,35.14
2019-01-08T06:35:04.904Z,34.94
2019-01-08T06:36:14.339Z,35.14
2019-01-08T06:37:23.781Z,35.04
2019-01-08T06:38:32.959Z,35.04
2019-01-08T06:39:41.647Z,35.14
2019-01-08T06:40:59.897Z,35.14
2019-01-08T06:42:08.602Z,35.24
2019-01-08T06:43:17.717Z,35.24
2019-01-08T06:44:27.186Z,35.22
2019-01-08T06:45:36.382Z,35.14
2019-01-08T06:46:45.836Z,35.14
2019-01-08T06:47:55.310Z,35.12
2019-01-08T06:49:04.504Z,35.14
2019-01-08T06:50:14.183Z,35.12
2019-01-08T06:51:23.153Z,35.02
2019-01-08T06:52:33.858Z,35.02
2019-01-08T06:53:43.201Z,35.04
2019-01-08T06:54:52.140Z,35.04
2019-01-08T06:56:01.575Z,35.12
2019-01-08T06:57:11.028Z,34.92
2019-01-08T06:58:20.481Z,34.92
2019-01-08T06:59:29.684Z,34.92
2019-01-08T07:00:38.871Z,34.92
2019-01-08T07:01:48.062Z,35.02
2019-01-08T07:02:57.482Z,35.02
2019-01-08T07:04:06.971Z,35.02
2019-01-08T07:05:16.154Z,34.94
2019-01-08T07:06:25.434Z,34.94
2019-01-08T07:07:34.665Z,35.02
2019-01-08T07:08:44.132Z,35.02
2019-01-08T07:09:53.383Z,35.12
2019-01-08T07:11:02.850Z,35.12
2019-01-08T07:12:12.035Z,35.12
2019-01-08T07:13:21.226Z,35.12
2019-01-08T07:14:30.404Z,35.12
2019-01-08T07:15:39.601Z,35.22
2019-01-08T07:16:49.350Z,35.02
2019-01-08T07:17:58.789Z,35.12
2019-01-08T07:19:08.498Z,35.12
2019-01-08T07:20:17.542Z,35.12
2019-01-08T07:21:26.754Z,35.12
2019-01-08T07:22:35.950Z,35.12
2019-01-08T07:23:45.146Z,35.22
2019-01-08T07:24:54.584Z,35.12
2019-01-08T07:26:03.870Z,35.22
2019-01-08T07:27:18.963Z,35.02
2019-01-08T07:28:29.295Z,35.14
2019-01-08T07:29:38.459Z,35.12
2019-01-08T07:30:48.160Z,35.02
2019-01-08T07:31:57.601Z,34.92
2019-01-08T07:33:07.311Z,35.12
2019-01-08T07:34:16.729Z,35.12
2019-01-08T07:35:27.203Z,34.64
2019-01-08T07:36:36.169Z,35.04
2019-01-08T07:37:45.145Z,35.22
2019-01-08T07:38:54.633Z,34.75
2019-01-08T07:40:04.112Z,34.74
2019-01-08T07:41:13.887Z,35.22
2019-01-08T07:42:23.098Z,34.74
2019-01-08T07:43:32.854Z,35.14
2019-01-08T07:44:42.303Z,34.64
2019-01-08T07:45:51.786Z,34.54
2019-01-08T07:47:01.602Z,34.75
2019-01-08T07:48:10.551Z,34.64
2019-01-08T07:49:19.978Z,34.66
2019-01-08T07:50:29.434Z,34.64
2019-01-08T07:51:38.968Z,34.56
2019-01-08T07:52:48.419Z,34.75
2019-01-08T07:53:57.873Z,34.75
2019-01-08T07:55:07.865Z,34.66
2019-01-08T07:56:17.333Z,34.66
2019-01-08T07:57:26.782Z,34.64
2019-01-08T07:58:36.485Z,34.66
2019-01-08T07:59:46.431Z,34.75
2019-01-08T08:00:56.136Z,34.75
2019-01-08T08:02:06.846Z,34.66
2019-01-08T08:03:16.103Z,34.66
2019-01-08T08:04:25.801Z,34.75
2019-01-08T08:05:35.238Z,34.74
2019-01-08T08:06:44.415Z,34.66
2019-01-08T08:07:54.511Z,34.66
2019-01-08T08:09:03.999Z,34.46
2019-01-08T08:10:13.188Z,34.46
2019-01-08T08:11:22.989Z,34.66
2019-01-08T08:12:32.171Z,34.46
2019-01-08T08:13:41.618Z,34.66
2019-01-08T08:14:50.841Z,34.46
2019-01-08T08:15:59.863Z,34.37
2019-01-08T08:17:09.546Z,34.46
2019-01-08T08:18:19.315Z,34.94
2019-01-08T08:19:28.759Z,34.46
2019-01-08T08:20:38.437Z,34.66
2019-01-08T08:21:48.147Z,34.56
2019-01-08T08:22:57.364Z,34.66
2019-01-08T08:24:06.079Z,34.46
2019-01-08T08:25:15.273Z,34.66
2019-01-08T08:26:24.710Z,34.75
2019-01-08T08:27:33.647Z,34.56
2019-01-08T08:28:43.335Z,34.46
2019-01-08T08:29:53.096Z,34.56
2019-01-08T08:31:02.288Z,34.46
2019-01-08T08:32:11.496Z,34.46
2019-01-08T08:33:20.955Z,34.56
2019-01-08T08:34:30.692Z,34.46
2019-01-08T08:35:40.153Z,34.66
2019-01-08T08:36:49.820Z,34.56
2019-01-08T08:37:58.829Z,34.46
2019-01-08T08:39:08.393Z,34.56
2019-01-08T08:40:17.590Z,34.56
2019-01-08T08:41:26.786Z,34.84
2019-01-08T08:42:35.733Z,34.56
2019-01-08T08:43:44.675Z,34.46
2019-01-08T08:44:54.354Z,34.56
2019-01-08T08:46:03.824Z,34.46
2019-01-08T08:47:13.342Z,34.46
2019-01-08T08:48:23.329Z,34.46
2019-01-08T08:49:32.762Z,34.56
2019-01-08T08:50:42.213Z,34.56
2019-01-08T08:51:51.659Z,34.46
2019-01-08T08:53:00.879Z,34.56
2019-01-08T08:54:10.594Z,34.37
2019-01-08T08:55:20.302Z,34.66
2019-01-08T08:56:29.507Z,34.46
2019-01-08T08:57:38.955Z,34.56
2019-01-08T08:58:48.651Z,34.46
2019-01-08T08:59:58.098Z,34.56
2019-01-08T09:01:09.546Z,34.56
2019-01-08T09:02:19.248Z,34.75
2019-01-08T09:03:28.441Z,34.84
2019-01-08T09:04:37.636Z,34.66
2019-01-08T09:05:46.606Z,34.56
2019-01-08T09:06:55.803Z,34.46
2019-01-08T09:08:05.245Z,34.56
2019-01-08T09:09:14.174Z,34.46
2019-01-08T09:10:23.371Z,34.46
2019-01-08T09:11:32.303Z,34.66
2019-01-08T09:12:41.752Z,34.46
2019-01-08T09:13:51.433Z,34.56
2019-01-08T09:15:00.945Z,34.46
2019-01-08T09:16:10.632Z,34.46
2019-01-08T09:17:19.886Z,34.46
2019-01-08T09:18:29.375Z,34.46
2019-01-08T09:19:38.598Z,34.46
2019-01-08T09:20:47.926Z,34.56
2019-01-08T09:21:57.603Z,34.56
2019-01-08T09:23:06.782Z,34.56
2019-01-08T09:24:16.211Z,34.56
2019-01-08T09:25:25.183Z,34.46
2019-01-08T09:26:34.629Z,34.56
2019-01-08T09:27:44.606Z,34.46
2019-01-08T09:28:54.031Z,34.66
2019-01-08T09:30:03.737Z,34.56
2019-01-08T09:31:17.978Z,34.56
2019-01-08T09:32:27.528Z,34.46
2019-01-08T09:33:37.221Z,34.56
2019-01-08T09:34:46.413Z,34.46
2019-01-08T09:35:55.614Z,34.56
2019-01-08T09:37:05.367Z,34.46
2019-01-08T09:38:14.525Z,34.46
2019-01-08T09:39:24.221Z,34.56
2019-01-08T09:40:33.896Z,34.66
2019-01-08T09:41:43.342Z,34.46
2019-01-08T09:42:52.787Z,34.46
2019-01-08T09:44:02.462Z,34.46
2019-01-08T09:45:11.678Z,34.56
2019-01-08T09:46:21.004Z,34.56
2019-01-08T09:47:29.949Z,34.46
2019-01-08T09:48:39.869Z,34.46
2019-01-08T09:49:49.575Z,34.56
2019-01-08T09:50:58.780Z,34.56
2019-01-08T09:52:07.472Z,34.66
2019-01-08T09:53:16.410Z,34.66
2019-01-08T09:54:25.919Z,34.46
2019-01-08T09:55:35.351Z,34.46
2019-01-08T09:56:45.287Z,34.75
2019-01-08T09:57:54.972Z,34.37
2019-01-08T09:59:04.657Z,34.56
2019-01-08T10:00:14.368Z,34.56
2019-01-08T10:01:26.405Z,34.46
2019-01-08T10:02:36.092Z,34.56
2019-01-08T10:03:45.531Z,34.75
2019-01-08T10:04:54.970Z,34.46
2019-01-08T10:06:04.659Z,34.46
2019-01-08T10:07:14.087Z,34.46
2019-01-08T10:08:23.295Z,34.46
2019-01-08T10:09:32.728Z,34.75
2019-01-08T10:10:42.177Z,34.75
2019-01-08T10:11:51.379Z,34.66
2019-01-08T10:13:00.839Z,34.66
2019-01-08T10:14:10.538Z,34.46
2019-01-08T10:15:19.479Z,34.75
2019-01-08T10:16:28.450Z,34.66
2019-01-08T10:17:37.898Z,34.75
2019-01-08T10:18:47.847Z,34.46
2019-01-08T10:19:57.539Z,34.46
2019-01-08T10:21:06.741Z,34.46
2019-01-08T10:22:15.671Z,34.46
2019-01-08T10:23:25.111Z,34.66
2019-01-08T10:24:34.579Z,34.66
2019-01-08T10:25:44.022Z,34.84
2019-01-08T10:26:53.206Z,34.66
2019-01-08T10:28:02.387Z,34.66
2019-01-08T10:29:11.828Z,34.56
2019-01-08T10:30:21.262Z,34.75
2019-01-08T10:31:35.194Z,34.56
2019-01-08T10:32:44.627Z,34.75
2019-01-08T10:33:54.070Z,34.56
2019-01-08T10:35:03.275Z,34.56
2019-01-08T10:36:12.722Z,34.75
2019-01-08T10:37:21.915Z,34.75
2019-01-08T10:38:30.871Z,34.75
2019-01-08T10:39:39.862Z,34.46
2019-01-08T10:40:49.555Z,34.66
2019-01-08T10:41:58.763Z,34.66
2019-01-08T10:43:08.192Z,34.46
2019-01-08T10:44:17.126Z,34.56
2019-01-08T10:45:26.307Z,34.66
2019-01-08T10:46:39.862Z,34.66
2019-01-08T10:47:49.052Z,34.75
2019-01-08T10:48:58.233Z,34.66
2019-01-08T10:50:07.679Z,34.66
2019-01-08T10:51:17.385Z,34.75
2019-01-08T10:52:26.822Z,34.66
2019-01-08T10:53:36.327Z,34.66
2019-01-08T10:54:45.516Z,34.66
2019-01-08T10:55:55.211Z,34.66
2019-01-08T10:57:04.913Z,34.56
2019-01-08T10:58:14.611Z,34.75
2019-01-08T10:59:24.297Z,34.75
2019-01-08T11:00:33.494Z,34.75
2019-01-08T11:01:43.431Z,34.66
2019-01-08T11:02:52.866Z,34.75
2019-01-08T11:04:02.555Z,34.56
2019-01-08T11:05:11.741Z,34.75
2019-01-08T11:06:20.675Z,34.75
2019-01-08T11:07:30.354Z,34.66
2019-01-08T11:08:40.060Z,34.66
2019-01-08T11:09:49.777Z,34.66
2019-01-08T11:10:59.210Z,34.66
2019-01-08T11:12:08.210Z,34.75
2019-01-08T11:13:17.914Z,34.66
2019-01-08T11:14:27.588Z,34.66
2019-01-08T11:15:36.283Z,34.56
2019-01-08T11:16:44.979Z,34.66
2019-01-08T11:17:55.639Z,34.46
2019-01-08T11:19:05.323Z,34.66
2019-01-08T11:20:14.760Z,34.75
2019-01-08T11:21:24.200Z,34.56
2019-01-08T11:22:33.400Z,34.66
2019-01-08T11:23:43.378Z,34.66
2019-01-08T11:24:53.055Z,34.66
2019-01-08T11:26:02.505Z,34.66
2019-01-08T11:27:12.440Z,34.66
2019-01-08T11:28:21.398Z,34.75
2019-01-08T11:29:31.352Z,34.66
2019-01-08T11:30:40.842Z,34.66
2019-01-08T11:31:51.590Z,34.66
2019-01-08T11:33:00.529Z,34.66
2019-01-08T11:34:09.971Z,34.84
2019-01-08T11:35:19.679Z,34.75
2019-01-08T11:36:29.147Z,34.66
2019-01-08T11:37:38.101Z,34.75
2019-01-08T11:38:47.558Z,34.66
2019-01-08T11:39:56.749Z,34.66
2019-01-08T11:41:05.974Z,34.75
2019-01-08T11:42:15.402Z,34.56
2019-01-08T11:43:24.840Z,34.66
2019-01-08T11:44:34.054Z,34.84
2019-01-08T11:45:43.503Z,34.66
2019-01-08T11:46:52.959Z,34.66
2019-01-08T11:48:06.723Z,34.37
2019-01-08T11:49:15.672Z,34.66
2019-01-08T11:50:24.875Z,34.66
2019-01-08T11:51:34.335Z,34.66
2019-01-08T11:52:43.402Z,34.75
2019-01-08T11:53:53.256Z,34.66
2019-01-08T11:55:01.949Z,34.75
2019-01-08T11:56:11.646Z,34.66
2019-01-08T11:57:21.122Z,34.66
2019-01-08T11:58:30.298Z,34.75
2019-01-08T11:59:40.254Z,34.66
2019-01-08T12:00:51.174Z,34.84
2019-01-08T12:02:00.622Z,34.66
2019-01-08T12:03:09.819Z,34.66
2019-01-08T12:04:19.256Z,34.75
2019-01-08T12:05:28.946Z,34.75
2019-01-08T12:06:38.391Z,34.84
2019-01-08T12:07:47.077Z,34.75
2019-01-08T12:08:56.790Z,34.75
2019-01-08T12:10:06.258Z,34.66
2019-01-08T12:11:15.953Z,34.75
2019-01-08T12:12:25.659Z,35.14
2019-01-08T12:13:34.603Z,34.84
2019-01-08T12:14:44.057Z,34.66
2019-01-08T12:15:53.533Z,34.84
2019-01-08T12:17:03.211Z,34.75
2019-01-08T12:18:12.952Z,34.75
2019-01-08T12:19:22.880Z,34.75
2019-01-08T12:20:32.105Z,34.75
2019-01-08T12:21:41.317Z,34.66
2019-01-08T12:22:50.777Z,34.66
2019-01-08T12:23:59.737Z,34.75
2019-01-08T12:25:09.458Z,34.66
2019-01-08T12:26:18.658Z,34.75
2019-01-08T12:27:27.592Z,34.84
2019-01-08T12:28:37.320Z,34.66
2019-01-08T12:29:46.501Z,34.84
2019-01-08T12:30:55.955Z,35.14
2019-01-08T12:32:08.861Z,34.66
2019-01-08T12:33:17.824Z,34.75
2019-01-08T12:34:27.274Z,34.66
2019-01-08T12:35:36.743Z,34.56
2019-01-08T12:36:46.448Z,34.66
2019-01-08T12:37:55.384Z,34.75
2019-01-08T12:39:04.586Z,34.56
2019-01-08T12:40:14.044Z,34.75
2019-01-08T12:41:23.523Z,34.75
2019-01-08T12:42:32.748Z,34.84
2019-01-08T12:43:41.958Z,34.66
2019-01-08T12:44:50.910Z,34.66
2019-01-08T12:45:59.908Z,34.75
2019-01-08T12:47:09.127Z,34.66
2019-01-08T12:48:18.818Z,34.75
2019-01-08T12:49:28.545Z,34.66
2019-01-08T12:50:37.733Z,34.66
2019-01-08T12:51:46.962Z,34.66
2019-01-08T12:52:56.407Z,34.75
2019-01-08T12:54:06.165Z,34.75
2019-01-08T12:55:15.352Z,34.66
2019-01-08T12:56:25.064Z,34.84
2019-01-08T12:57:34.290Z,34.75
2019-01-08T12:58:44.018Z,34.84
2019-01-08T12:59:53.236Z,34.75
2019-01-08T13:01:02.203Z,34.75
2019-01-08T13:02:17.284Z,34.75
2019-01-08T13:03:26.513Z,34.75
2019-01-08T13:04:36.204Z,34.75
2019-01-08T13:05:45.410Z,34.75
2019-01-08T13:06:54.618Z,34.75
2019-01-08T13:08:04.653Z,34.75
2019-01-08T13:09:14.597Z,34.75
2019-01-08T13:10:23.532Z,34.75
2019-01-08T13:11:32.711Z,34.66
2019-01-08T13:12:41.893Z,34.66
2019-01-08T13:13:51.571Z,34.75
2019-01-08T13:15:01.090Z,34.75
2019-01-08T13:16:10.788Z,34.75
2019-01-08T13:17:20.226Z,34.75
2019-01-08T13:18:29.664Z,34.66
2019-01-08T13:19:39.092Z,34.75
2019-01-08T13:20:48.782Z,34.75
2019-01-08T13:21:58.464Z,34.84
2019-01-08T13:23:07.899Z,34.75
2019-01-08T13:24:17.091Z,34.66
2019-01-08T13:25:26.391Z,34.66
2019-01-08T13:26:36.060Z,34.75
2019-01-08T13:27:45.539Z,34.75
2019-01-08T13:28:55.015Z,34.75
2019-01-08T13:30:04.556Z,34.75
2019-01-08T13:31:14.232Z,35.14
2019-01-08T13:32:25.477Z,34.75
2019-01-08T13:33:34.695Z,34.75
2019-01-08T13:34:43.897Z,34.75
2019-01-08T13:35:53.708Z,34.75
2019-01-08T13:37:02.911Z,34.75
2019-01-08T13:38:12.402Z,35.24
2019-01-08T13:39:21.856Z,34.75
2019-01-08T13:40:31.297Z,34.84
2019-01-08T13:41:41.271Z,34.75
2019-01-08T13:42:50.537Z,34.84
2019-01-08T13:44:00.059Z,34.75
2019-01-08T13:45:09.500Z,34.75
2019-01-08T13:46:18.967Z,34.75
2019-01-08T13:47:27.899Z,34.75
2019-01-08T13:48:37.339Z,35.14
2019-01-08T13:49:46.725Z,34.66
2019-01-08T13:50:55.916Z,34.66
2019-01-08T13:52:04.854Z,35.24
2019-01-08T13:53:14.118Z,34.66
2019-01-08T13:54:23.554Z,35.24
2019-01-08T13:55:32.484Z,34.84
2019-01-08T13:56:42.002Z,35.24
2019-01-08T13:57:50.681Z,34.75
2019-01-08T13:58:59.673Z,35.14
2019-01-08T14:00:08.847Z,34.75
2019-01-08T14:01:18.051Z,34.66
2019-01-08T14:02:34.409Z,35.14
2019-01-08T14:03:43.610Z,34.75
2019-01-08T14:04:53.066Z,35.04
2019-01-08T14:06:02.561Z,35.14
2019-01-08T14:07:13.187Z,34.66
2019-01-08T14:08:22.229Z,35.14
2019-01-08T14:09:31.910Z,35.14
2019-01-08T14:10:41.607Z,35.14
2019-01-08T14:11:58.757Z,35.14
2019-01-08T14:13:07.962Z,35.14
2019-01-08T14:14:17.402Z,34.75
2019-01-08T14:15:26.099Z,35.24
2019-01-08T14:16:35.327Z,35.04
2019-01-08T14:17:44.762Z,34.66
2019-01-08T14:18:53.984Z,35.14
2019-01-08T14:20:03.256Z,35.24
2019-01-08T14:21:12.681Z,35.14
2019-01-08T14:22:22.113Z,34.75
2019-01-08T14:23:31.557Z,34.66
2019-01-08T14:24:40.996Z,35.14
2019-01-08T14:25:49.953Z,35.33
2019-01-08T14:26:59.169Z,34.84
2019-01-08T14:28:16.663Z,35.24
2019-01-08T14:29:26.127Z,34.84
2019-01-08T14:30:35.308Z,35.04
2019-01-08T14:31:45.018Z,34.66
2019-01-08T14:32:54.717Z,35.14
2019-01-08T14:34:04.510Z,34.75
2019-01-08T14:35:14.191Z,35.14
2019-01-08T14:36:23.617Z,35.14
2019-01-08T14:37:34.252Z,35.04
2019-01-08T14:38:43.350Z,35.04
2019-01-08T14:39:52.538Z,35.14
2019-01-08T14:41:01.988Z,35.14
2019-01-08T14:42:11.470Z,35.14
2019-01-08T14:43:20.907Z,35.24
2019-01-08T14:45:03.851Z,35.14
2019-01-08T14:46:13.291Z,35.14
2019-01-08T14:47:22.463Z,35.14
2019-01-08T14:48:31.649Z,34.84
2019-01-08T14:49:41.367Z,35.04
2019-01-08T14:50:50.806Z,35.12
2019-01-08T14:52:00.130Z,35.24
2019-01-08T14:53:09.315Z,35.14
2019-01-08T14:54:18.775Z,35.14
2019-01-08T14:55:28.489Z,35.24
2019-01-08T14:56:37.937Z,34.84